sensor_id;sensor_type;location;lat;lon;timestamp;P1;durP1;ratioP1;P2;durP2;ratioP2
51034;SDS011;37062;52.546;13.230;2022-12-18T00:00:05;42.70;;;19.23;;
51034;SDS011;37062;52.546;13.230;2022-12-18T00:02:39;45.33;;;19.70;;
51034;SDS011;37062;52.546;13.230;2022-12-18T00:05:08;41.83;;;18.93;;
51034;SDS011;37062;52.546;13.230;2022-12-18T00:07:37;42.50;;;19.03;;
51034;SDS011;37062;52.546;13.230;2022-12-18T00:10:05;42.93;;;19.70;;
51034;SDS011;37062;52.546;13.230;2022-12-18T00:12:35;42.27;;;20.20;;
51034;SDS011;37062;52.546;13.230;2022-12-18T00:15:03;37.23;;;17.17;;
51034;SDS011;37062;52.546;13.230;2022-12-18T00:17:32;42.63;;;19.03;;
51034;SDS011;37062;52.546;13.230;2022-12-18T00:20:00;41.40;;;19.13;;
51034;SDS011;37062;52.546;13.230;2022-12-18T00:22:30;37.60;;;17.87;;
51034;SDS011;37062;52.546;13.230;2022-12-18T00:24:58;39.20;;;16.93;;
51034;SDS011;37062;52.546;13.230;2022-12-18T00:27:26;38.27;;;17.57;;
51034;SDS011;37062;52.546;13.230;2022-12-18T00:29:55;41.97;;;18.07;;
51034;SDS011;37062;52.546;13.230;2022-12-18T00:32:23;40.53;;;18.53;;
51034;SDS011;37062;52.546;13.230;2022-12-18T00:34:51;39.40;;;19.10;;
51034;SDS011;37062;52.546;13.230;2022-12-18T00:37:19;38.00;;;18.63;;
51034;SDS011;37062;52.546;13.230;2022-12-18T00:39:51;39.70;;;17.87;;
51034;SDS011;37062;52.546;13.230;2022-12-18T00:42:19;39.20;;;19.13;;
51034;SDS011;37062;52.546;13.230;2022-12-18T00:45:05;45.33;;;20.13;;
51034;SDS011;37062;52.546;13.230;2022-12-18T00:47:38;41.43;;;18.23;;
51034;SDS011;37062;52.546;13.230;2022-12-18T00:50:07;43.60;;;18.77;;
51034;SDS011;37062;52.546;13.230;2022-12-18T00:52:36;40.83;;;18.97;;
51034;SDS011;37062;52.546;13.230;2022-12-18T00:55:09;41.43;;;18.40;;
51034;SDS011;37062;52.546;13.230;2022-12-18T00:57:37;39.07;;;18.10;;
51034;SDS011;37062;52.546;13.230;2022-12-18T01:00:06;43.50;;;18.90;;
51034;SDS011;37062;52.546;13.230;2022-12-18T01:02:37;43.47;;;19.60;;
51034;SDS011;37062;52.546;13.230;2022-12-18T01:05:08;49.50;;;20.70;;
51034;SDS011;37062;52.546;13.230;2022-12-18T01:07:37;46.13;;;20.53;;
51034;SDS011;37062;52.546;13.230;2022-12-18T01:10:06;49.20;;;21.83;;
51034;SDS011;37062;52.546;13.230;2022-12-18T01:12:36;48.30;;;21.30;;
51034;SDS011;37062;52.546;13.230;2022-12-18T01:15:05;47.17;;;20.13;;
51034;SDS011;37062;52.546;13.230;2022-12-18T01:17:36;47.43;;;19.87;;
51034;SDS011;37062;52.546;13.230;2022-12-18T01:20:04;42.97;;;19.97;;
51034;SDS011;37062;52.546;13.230;2022-12-18T01:22:33;46.77;;;20.47;;
51034;SDS011;37062;52.546;13.230;2022-12-18T01:25:01;39.70;;;19.33;;
51034;SDS011;37062;52.546;13.230;2022-12-18T01:27:33;48.57;;;20.10;;
51034;SDS011;37062;52.546;13.230;2022-12-18T01:30:04;46.47;;;18.80;;
51034;SDS011;37062;52.546;13.230;2022-12-18T01:32:33;43.83;;;18.80;;
51034;SDS011;37062;52.546;13.230;2022-12-18T01:35:01;46.10;;;20.20;;
51034;SDS011;37062;52.546;13.230;2022-12-18T01:37:30;45.67;;;19.30;;
51034;SDS011;37062;52.546;13.230;2022-12-18T01:39:59;46.33;;;20.40;;
51034;SDS011;37062;52.546;13.230;2022-12-18T01:42:27;44.50;;;19.60;;
51034;SDS011;37062;52.546;13.230;2022-12-18T01:45:00;43.37;;;18.33;;
51034;SDS011;37062;52.546;13.230;2022-12-18T01:47:36;47.77;;;20.57;;
51034;SDS011;37062;52.546;13.230;2022-12-18T01:50:09;49.03;;;21.43;;
51034;SDS011;37062;52.546;13.230;2022-12-18T01:52:40;40.30;;;18.53;;
51034;SDS011;37062;52.546;13.230;2022-12-18T01:55:10;40.83;;;18.03;;
51034;SDS011;37062;52.546;13.230;2022-12-18T01:57:39;43.57;;;18.50;;
51034;SDS011;37062;52.546;13.230;2022-12-18T02:00:11;42.37;;;19.53;;
51034;SDS011;37062;52.546;13.230;2022-12-18T02:02:41;38.93;;;17.17;;
51034;SDS011;37062;52.546;13.230;2022-12-18T02:05:12;46.63;;;19.10;;
51034;SDS011;37062;52.546;13.230;2022-12-18T02:07:51;45.17;;;18.47;;
51034;SDS011;37062;52.546;13.230;2022-12-18T02:10:31;42.13;;;17.87;;
51034;SDS011;37062;52.546;13.230;2022-12-18T02:13:08;41.07;;;17.97;;
51034;SDS011;37062;52.546;13.230;2022-12-18T02:15:44;40.40;;;17.60;;
51034;SDS011;37062;52.546;13.230;2022-12-18T02:18:20;40.07;;;18.03;;
51034;SDS011;37062;52.546;13.230;2022-12-18T02:20:54;45.27;;;19.77;;
51034;SDS011;37062;52.546;13.230;2022-12-18T02:23:31;40.53;;;18.27;;
51034;SDS011;37062;52.546;13.230;2022-12-18T02:26:18;37.53;;;17.77;;
51034;SDS011;37062;52.546;13.230;2022-12-18T02:28:51;44.13;;;18.80;;
51034;SDS011;37062;52.546;13.230;2022-12-18T02:31:24;42.80;;;19.37;;
51034;SDS011;37062;52.546;13.230;2022-12-18T02:33:57;41.60;;;18.97;;
51034;SDS011;37062;52.546;13.230;2022-12-18T02:36:34;45.57;;;19.30;;
51034;SDS011;37062;52.546;13.230;2022-12-18T02:39:05;45.80;;;20.23;;
51034;SDS011;37062;52.546;13.230;2022-12-18T02:41:45;41.13;;;18.10;;
51034;SDS011;37062;52.546;13.230;2022-12-18T02:44:14;46.20;;;19.47;;
51034;SDS011;37062;52.546;13.230;2022-12-18T02:46:43;42.90;;;18.77;;
51034;SDS011;37062;52.546;13.230;2022-12-18T02:49:21;47.30;;;20.03;;
51034;SDS011;37062;52.546;13.230;2022-12-18T02:52:01;45.73;;;18.77;;
51034;SDS011;37062;52.546;13.230;2022-12-18T02:54:41;42.10;;;18.33;;
51034;SDS011;37062;52.546;13.230;2022-12-18T02:57:24;44.33;;;18.33;;
51034;SDS011;37062;52.546;13.230;2022-12-18T03:00:04;44.63;;;19.57;;
51034;SDS011;37062;52.546;13.230;2022-12-18T03:02:37;41.77;;;19.30;;
51034;SDS011;37062;52.546;13.230;2022-12-18T03:05:12;37.40;;;16.20;;
51034;SDS011;37062;52.546;13.230;2022-12-18T03:07:45;40.07;;;17.90;;
51034;SDS011;37062;52.546;13.230;2022-12-18T03:10:19;41.23;;;17.60;;
51034;SDS011;37062;52.546;13.230;2022-12-18T03:12:56;39.57;;;17.13;;
51034;SDS011;37062;52.546;13.230;2022-12-18T03:15:28;42.90;;;18.07;;
51034;SDS011;37062;52.546;13.230;2022-12-18T03:18:06;42.17;;;17.57;;
51034;SDS011;37062;52.546;13.230;2022-12-18T03:20:38;38.13;;;16.33;;
51034;SDS011;37062;52.546;13.230;2022-12-18T03:23:12;38.87;;;17.17;;
51034;SDS011;37062;52.546;13.230;2022-12-18T03:25:46;38.77;;;16.87;;
51034;SDS011;37062;52.546;13.230;2022-12-18T03:28:22;42.40;;;17.53;;
51034;SDS011;37062;52.546;13.230;2022-12-18T03:30:58;43.67;;;17.53;;
51034;SDS011;37062;52.546;13.230;2022-12-18T03:33:30;40.80;;;17.10;;
51034;SDS011;37062;52.546;13.230;2022-12-18T03:36:05;42.60;;;18.00;;
51034;SDS011;37062;52.546;13.230;2022-12-18T03:38:34;40.67;;;16.93;;
51034;SDS011;37062;52.546;13.230;2022-12-18T03:41:06;35.87;;;17.07;;
51034;SDS011;37062;52.546;13.230;2022-12-18T03:44:05;37.23;;;16.90;;
51034;SDS011;37062;52.546;13.230;2022-12-18T03:46:45;45.73;;;19.20;;
51034;SDS011;37062;52.546;13.230;2022-12-18T03:49:25;49.20;;;18.90;;
51034;SDS011;37062;52.546;13.230;2022-12-18T03:52:03;43.43;;;19.40;;
51034;SDS011;37062;52.546;13.230;2022-12-18T03:54:37;49.30;;;19.37;;
51034;SDS011;37062;52.546;13.230;2022-12-18T03:57:13;45.37;;;19.67;;
51034;SDS011;37062;52.546;13.230;2022-12-18T03:59:45;45.70;;;19.10;;
51034;SDS011;37062;52.546;13.230;2022-12-18T04:02:18;42.33;;;18.40;;
51034;SDS011;37062;52.546;13.230;2022-12-18T04:04:49;44.60;;;17.83;;
51034;SDS011;37062;52.546;13.230;2022-12-18T04:07:20;40.23;;;18.47;;
51034;SDS011;37062;52.546;13.230;2022-12-18T04:09:50;42.47;;;17.73;;
51034;SDS011;37062;52.546;13.230;2022-12-18T04:12:23;48.93;;;19.87;;
51034;SDS011;37062;52.546;13.230;2022-12-18T04:14:53;44.07;;;18.20;;
51034;SDS011;37062;52.546;13.230;2022-12-18T04:17:22;40.83;;;17.03;;
51034;SDS011;37062;52.546;13.230;2022-12-18T04:19:51;44.10;;;18.87;;
51034;SDS011;37062;52.546;13.230;2022-12-18T04:22:19;50.00;;;20.13;;
51034;SDS011;37062;52.546;13.230;2022-12-18T04:24:52;56.37;;;21.27;;
51034;SDS011;37062;52.546;13.230;2022-12-18T04:27:28;45.80;;;19.53;;
51034;SDS011;37062;52.546;13.230;2022-12-18T04:29:59;61.73;;;22.17;;
51034;SDS011;37062;52.546;13.230;2022-12-18T04:32:29;46.93;;;18.70;;
51034;SDS011;37062;52.546;13.230;2022-12-18T04:34:58;52.20;;;20.87;;
51034;SDS011;37062;52.546;13.230;2022-12-18T04:37:26;52.90;;;21.20;;
51034;SDS011;37062;52.546;13.230;2022-12-18T04:39:55;57.73;;;23.70;;
51034;SDS011;37062;52.546;13.230;2022-12-18T04:42:31;63.77;;;23.57;;
51034;SDS011;37062;52.546;13.230;2022-12-18T04:45:01;59.20;;;23.43;;
51034;SDS011;37062;52.546;13.230;2022-12-18T04:47:30;62.57;;;23.53;;
51034;SDS011;37062;52.546;13.230;2022-12-18T04:49:58;56.80;;;22.80;;
51034;SDS011;37062;52.546;13.230;2022-12-18T04:52:26;55.03;;;21.77;;
51034;SDS011;37062;52.546;13.230;2022-12-18T04:54:57;51.50;;;20.73;;
51034;SDS011;37062;52.546;13.230;2022-12-18T04:57:25;59.57;;;23.67;;
51034;SDS011;37062;52.546;13.230;2022-12-18T04:59:53;53.97;;;21.63;;
51034;SDS011;37062;52.546;13.230;2022-12-18T05:02:23;58.13;;;22.37;;
51034;SDS011;37062;52.546;13.230;2022-12-18T05:04:51;55.33;;;21.23;;
51034;SDS011;37062;52.546;13.230;2022-12-18T05:07:19;50.20;;;20.20;;
51034;SDS011;37062;52.546;13.230;2022-12-18T05:09:48;60.10;;;22.97;;
51034;SDS011;37062;52.546;13.230;2022-12-18T05:12:16;55.73;;;22.63;;
51034;SDS011;37062;52.546;13.230;2022-12-18T05:14:44;58.00;;;23.33;;
51034;SDS011;37062;52.546;13.230;2022-12-18T05:17:12;53.87;;;21.80;;
51034;SDS011;37062;52.546;13.230;2022-12-18T05:19:41;47.50;;;19.77;;
51034;SDS011;37062;52.546;13.230;2022-12-18T05:22:09;49.80;;;20.63;;
51034;SDS011;37062;52.546;13.230;2022-12-18T05:24:37;51.70;;;21.70;;
51034;SDS011;37062;52.546;13.230;2022-12-18T05:27:06;51.13;;;20.97;;
51034;SDS011;37062;52.546;13.230;2022-12-18T05:29:34;47.73;;;20.43;;
51034;SDS011;37062;52.546;13.230;2022-12-18T05:32:02;55.23;;;21.43;;
51034;SDS011;37062;52.546;13.230;2022-12-18T05:34:30;57.93;;;23.63;;
51034;SDS011;37062;52.546;13.230;2022-12-18T05:37:01;59.30;;;23.77;;
51034;SDS011;37062;52.546;13.230;2022-12-18T05:39:29;53.53;;;22.17;;
51034;SDS011;37062;52.546;13.230;2022-12-18T05:41:57;57.07;;;22.93;;
51034;SDS011;37062;52.546;13.230;2022-12-18T05:44:25;56.03;;;22.77;;
51034;SDS011;37062;52.546;13.230;2022-12-18T05:46:53;59.67;;;24.17;;
51034;SDS011;37062;52.546;13.230;2022-12-18T05:49:21;56.87;;;22.80;;
51034;SDS011;37062;52.546;13.230;2022-12-18T05:51:50;59.10;;;23.43;;
51034;SDS011;37062;52.546;13.230;2022-12-18T05:54:19;58.43;;;23.57;;
51034;SDS011;37062;52.546;13.230;2022-12-18T05:56:48;55.97;;;22.90;;
51034;SDS011;37062;52.546;13.230;2022-12-18T05:59:16;59.97;;;24.10;;
51034;SDS011;37062;52.546;13.230;2022-12-18T06:01:44;60.67;;;23.83;;
51034;SDS011;37062;52.546;13.230;2022-12-18T06:04:12;52.30;;;22.13;;
51034;SDS011;37062;52.546;13.230;2022-12-18T06:06:40;49.80;;;21.30;;
51034;SDS011;37062;52.546;13.230;2022-12-18T06:09:09;43.27;;;19.27;;
51034;SDS011;37062;52.546;13.230;2022-12-18T06:11:39;51.73;;;21.03;;
51034;SDS011;37062;52.546;13.230;2022-12-18T06:14:08;48.03;;;21.67;;
51034;SDS011;37062;52.546;13.230;2022-12-18T06:16:37;49.90;;;21.57;;
51034;SDS011;37062;52.546;13.230;2022-12-18T06:19:05;52.90;;;21.20;;
51034;SDS011;37062;52.546;13.230;2022-12-18T06:21:34;51.90;;;21.13;;
51034;SDS011;37062;52.546;13.230;2022-12-18T06:24:02;48.63;;;20.60;;
51034;SDS011;37062;52.546;13.230;2022-12-18T06:26:30;47.27;;;20.03;;
51034;SDS011;37062;52.546;13.230;2022-12-18T06:29:00;50.93;;;21.90;;
51034;SDS011;37062;52.546;13.230;2022-12-18T06:31:28;48.40;;;21.63;;
51034;SDS011;37062;52.546;13.230;2022-12-18T06:33:56;45.50;;;21.10;;
51034;SDS011;37062;52.546;13.230;2022-12-18T06:36:24;49.90;;;19.87;;
51034;SDS011;37062;52.546;13.230;2022-12-18T06:38:58;52.67;;;22.77;;
51034;SDS011;37062;52.546;13.230;2022-12-18T06:41:27;51.30;;;21.60;;
51034;SDS011;37062;52.546;13.230;2022-12-18T06:43:55;41.83;;;19.47;;
51034;SDS011;37062;52.546;13.230;2022-12-18T06:46:29;43.53;;;20.43;;
51034;SDS011;37062;52.546;13.230;2022-12-18T06:48:58;45.73;;;19.93;;
51034;SDS011;37062;52.546;13.230;2022-12-18T06:51:26;39.57;;;18.70;;
51034;SDS011;37062;52.546;13.230;2022-12-18T06:53:54;41.53;;;18.90;;
51034;SDS011;37062;52.546;13.230;2022-12-18T06:56:22;38.63;;;18.53;;
51034;SDS011;37062;52.546;13.230;2022-12-18T06:58:50;39.57;;;18.30;;
51034;SDS011;37062;52.546;13.230;2022-12-18T07:01:19;45.10;;;19.93;;
51034;SDS011;37062;52.546;13.230;2022-12-18T07:03:51;43.53;;;18.60;;
51034;SDS011;37062;52.546;13.230;2022-12-18T07:06:20;37.93;;;17.53;;
51034;SDS011;37062;52.546;13.230;2022-12-18T07:08:50;41.20;;;18.43;;
51034;SDS011;37062;52.546;13.230;2022-12-18T07:11:20;41.70;;;17.90;;
51034;SDS011;37062;52.546;13.230;2022-12-18T07:13:48;40.43;;;19.13;;
51034;SDS011;37062;52.546;13.230;2022-12-18T07:16:18;39.70;;;19.00;;
51034;SDS011;37062;52.546;13.230;2022-12-18T07:18:52;50.70;;;21.40;;
51034;SDS011;37062;52.546;13.230;2022-12-18T07:21:22;49.17;;;22.97;;
51034;SDS011;37062;52.546;13.230;2022-12-18T07:23:51;51.63;;;22.50;;
51034;SDS011;37062;52.546;13.230;2022-12-18T07:26:21;45.83;;;21.10;;
51034;SDS011;37062;52.546;13.230;2022-12-18T07:28:49;42.97;;;19.07;;
51034;SDS011;37062;52.546;13.230;2022-12-18T07:31:18;42.73;;;20.17;;
51034;SDS011;37062;52.546;13.230;2022-12-18T07:33:48;40.07;;;17.87;;
51034;SDS011;37062;52.546;13.230;2022-12-18T07:36:19;39.97;;;18.93;;
51034;SDS011;37062;52.546;13.230;2022-12-18T07:38:49;44.77;;;20.20;;
51034;SDS011;37062;52.546;13.230;2022-12-18T07:41:19;43.73;;;21.03;;
51034;SDS011;37062;52.546;13.230;2022-12-18T07:43:48;47.90;;;20.83;;
51034;SDS011;37062;52.546;13.230;2022-12-18T07:46:16;49.70;;;21.93;;
51034;SDS011;37062;52.546;13.230;2022-12-18T07:48:44;53.90;;;22.03;;
51034;SDS011;37062;52.546;13.230;2022-12-18T07:51:15;47.57;;;20.97;;
51034;SDS011;37062;52.546;13.230;2022-12-18T07:53:45;56.83;;;24.10;;
51034;SDS011;37062;52.546;13.230;2022-12-18T07:56:18;60.30;;;24.57;;
51034;SDS011;37062;52.546;13.230;2022-12-18T07:58:54;56.00;;;23.80;;
51034;SDS011;37062;52.546;13.230;2022-12-18T08:01:23;72.87;;;26.90;;
51034;SDS011;37062;52.546;13.230;2022-12-18T08:03:51;76.73;;;28.93;;
51034;SDS011;37062;52.546;13.230;2022-12-18T08:06:19;77.13;;;28.53;;
51034;SDS011;37062;52.546;13.230;2022-12-18T08:08:52;71.97;;;27.77;;
51034;SDS011;37062;52.546;13.230;2022-12-18T08:11:20;74.20;;;27.97;;
51034;SDS011;37062;52.546;13.230;2022-12-18T08:13:49;78.73;;;28.83;;
51034;SDS011;37062;52.546;13.230;2022-12-18T08:16:17;67.07;;;26.47;;
51034;SDS011;37062;52.546;13.230;2022-12-18T08:18:46;68.10;;;27.20;;
51034;SDS011;37062;52.546;13.230;2022-12-18T08:21:16;60.23;;;26.13;;
51034;SDS011;37062;52.546;13.230;2022-12-18T08:23:47;57.20;;;24.23;;
51034;SDS011;37062;52.546;13.230;2022-12-18T08:26:18;52.23;;;22.43;;
51034;SDS011;37062;52.546;13.230;2022-12-18T08:28:47;54.53;;;21.30;;
51034;SDS011;37062;52.546;13.230;2022-12-18T08:31:16;58.07;;;23.23;;
51034;SDS011;37062;52.546;13.230;2022-12-18T08:33:47;51.63;;;22.77;;
51034;SDS011;37062;52.546;13.230;2022-12-18T08:36:16;47.17;;;21.03;;
51034;SDS011;37062;52.546;13.230;2022-12-18T08:38:45;42.90;;;20.50;;
51034;SDS011;37062;52.546;13.230;2022-12-18T08:41:14;50.60;;;21.37;;
51034;SDS011;37062;52.546;13.230;2022-12-18T08:43:44;45.53;;;20.40;;
51034;SDS011;37062;52.546;13.230;2022-12-18T08:46:32;37.80;;;18.97;;
51034;SDS011;37062;52.546;13.230;2022-12-18T08:49:02;48.37;;;21.27;;
51034;SDS011;37062;52.546;13.230;2022-12-18T08:51:31;52.90;;;22.70;;
51034;SDS011;37062;52.546;13.230;2022-12-18T08:54:00;47.47;;;21.70;;
51034;SDS011;37062;52.546;13.230;2022-12-18T08:56:31;49.67;;;21.37;;
51034;SDS011;37062;52.546;13.230;2022-12-18T08:59:01;47.13;;;21.80;;
51034;SDS011;37062;52.546;13.230;2022-12-18T09:01:30;50.63;;;21.80;;
51034;SDS011;37062;52.546;13.230;2022-12-18T09:03:59;49.47;;;21.33;;
51034;SDS011;37062;52.546;13.230;2022-12-18T09:06:28;50.67;;;21.80;;
51034;SDS011;37062;52.546;13.230;2022-12-18T09:08:56;48.73;;;21.80;;
51034;SDS011;37062;52.546;13.230;2022-12-18T09:11:26;54.10;;;22.70;;
51034;SDS011;37062;52.546;13.230;2022-12-18T09:13:55;46.63;;;20.80;;
51034;SDS011;37062;52.546;13.230;2022-12-18T09:16:27;52.23;;;22.37;;
51034;SDS011;37062;52.546;13.230;2022-12-18T09:18:58;50.53;;;21.67;;
51034;SDS011;37062;52.546;13.230;2022-12-18T09:21:28;50.10;;;21.40;;
51034;SDS011;37062;52.546;13.230;2022-12-18T09:24:03;51.60;;;21.87;;
51034;SDS011;37062;52.546;13.230;2022-12-18T09:26:34;50.03;;;20.50;;
51034;SDS011;37062;52.546;13.230;2022-12-18T09:29:02;51.70;;;20.40;;
51034;SDS011;37062;52.546;13.230;2022-12-18T09:31:32;49.43;;;19.73;;
51034;SDS011;37062;52.546;13.230;2022-12-18T09:34:01;49.17;;;21.70;;
51034;SDS011;37062;52.546;13.230;2022-12-18T09:36:32;44.90;;;20.23;;
51034;SDS011;37062;52.546;13.230;2022-12-18T09:39:01;43.77;;;19.93;;
51034;SDS011;37062;52.546;13.230;2022-12-18T09:41:41;42.77;;;19.93;;
51034;SDS011;37062;52.546;13.230;2022-12-18T09:44:17;49.27;;;20.33;;
51034;SDS011;37062;52.546;13.230;2022-12-18T09:46:52;43.83;;;20.83;;
51034;SDS011;37062;52.546;13.230;2022-12-18T09:49:28;49.23;;;21.13;;
51034;SDS011;37062;52.546;13.230;2022-12-18T09:52:00;52.07;;;21.07;;
51034;SDS011;37062;52.546;13.230;2022-12-18T09:54:32;52.83;;;23.03;;
51034;SDS011;37062;52.546;13.230;2022-12-18T09:57:03;56.87;;;22.50;;
51034;SDS011;37062;52.546;13.230;2022-12-18T09:59:34;51.77;;;22.43;;
51034;SDS011;37062;52.546;13.230;2022-12-18T10:02:15;54.90;;;22.80;;
51034;SDS011;37062;52.546;13.230;2022-12-18T10:04:45;52.57;;;22.10;;
51034;SDS011;37062;52.546;13.230;2022-12-18T10:07:22;52.73;;;22.07;;
51034;SDS011;37062;52.546;13.230;2022-12-18T10:09:57;50.50;;;22.27;;
51034;SDS011;37062;52.546;13.230;2022-12-18T10:12:32;53.30;;;21.90;;
51034;SDS011;37062;52.546;13.230;2022-12-18T10:15:11;49.73;;;21.70;;
51034;SDS011;37062;52.546;13.230;2022-12-18T10:17:45;51.67;;;22.03;;
51034;SDS011;37062;52.546;13.230;2022-12-18T10:20:20;53.23;;;21.73;;
51034;SDS011;37062;52.546;13.230;2022-12-18T10:22:57;46.37;;;20.97;;
51034;SDS011;37062;52.546;13.230;2022-12-18T10:25:31;47.73;;;21.47;;
51034;SDS011;37062;52.546;13.230;2022-12-18T10:28:08;44.80;;;20.53;;
51034;SDS011;37062;52.546;13.230;2022-12-18T10:30:39;48.17;;;21.70;;
51034;SDS011;37062;52.546;13.230;2022-12-18T10:33:10;48.67;;;20.87;;
51034;SDS011;37062;52.546;13.230;2022-12-18T10:35:44;47.40;;;21.10;;
51034;SDS011;37062;52.546;13.230;2022-12-18T10:38:20;42.70;;;18.80;;
51034;SDS011;37062;52.546;13.230;2022-12-18T10:40:52;48.30;;;21.63;;
51034;SDS011;37062;52.546;13.230;2022-12-18T10:43:24;45.90;;;20.30;;
51034;SDS011;37062;52.546;13.230;2022-12-18T10:46:01;39.70;;;19.10;;
51034;SDS011;37062;52.546;13.230;2022-12-18T10:48:35;43.20;;;18.80;;
51034;SDS011;37062;52.546;13.230;2022-12-18T10:51:08;41.27;;;19.17;;
51034;SDS011;37062;52.546;13.230;2022-12-18T10:53:39;41.27;;;19.13;;
51034;SDS011;37062;52.546;13.230;2022-12-18T10:56:09;42.47;;;19.50;;
51034;SDS011;37062;52.546;13.230;2022-12-18T10:58:38;39.27;;;19.03;;
51034;SDS011;37062;52.546;13.230;2022-12-18T11:01:08;47.90;;;21.07;;
51034;SDS011;37062;52.546;13.230;2022-12-18T11:03:40;43.40;;;19.63;;
51034;SDS011;37062;52.546;13.230;2022-12-18T11:06:11;49.13;;;20.30;;
51034;SDS011;37062;52.546;13.230;2022-12-18T11:08:40;43.40;;;19.90;;
51034;SDS011;37062;52.546;13.230;2022-12-18T11:11:15;41.40;;;19.47;;
51034;SDS011;37062;52.546;13.230;2022-12-18T11:14:00;43.77;;;20.30;;
51034;SDS011;37062;52.546;13.230;2022-12-18T11:16:32;43.93;;;19.97;;
51034;SDS011;37062;52.546;13.230;2022-12-18T11:19:12;42.77;;;19.80;;
51034;SDS011;37062;52.546;13.230;2022-12-18T11:21:47;37.67;;;19.13;;
51034;SDS011;37062;52.546;13.230;2022-12-18T11:24:19;39.37;;;18.53;;
51034;SDS011;37062;52.546;13.230;2022-12-18T11:26:49;41.67;;;19.30;;
51034;SDS011;37062;52.546;13.230;2022-12-18T11:29:28;34.20;;;17.33;;
51034;SDS011;37062;52.546;13.230;2022-12-18T11:32:22;44.60;;;20.10;;
51034;SDS011;37062;52.546;13.230;2022-12-18T11:35:01;39.70;;;19.27;;
51034;SDS011;37062;52.546;13.230;2022-12-18T11:37:36;40.67;;;19.33;;
51034;SDS011;37062;52.546;13.230;2022-12-18T11:40:09;41.27;;;19.33;;
51034;SDS011;37062;52.546;13.230;2022-12-18T11:42:44;35.30;;;18.17;;
51034;SDS011;37062;52.546;13.230;2022-12-18T11:45:28;39.13;;;19.13;;
51034;SDS011;37062;52.546;13.230;2022-12-18T11:47:59;38.23;;;19.00;;
51034;SDS011;37062;52.546;13.230;2022-12-18T11:50:38;36.13;;;18.30;;
51034;SDS011;37062;52.546;13.230;2022-12-18T11:53:12;44.53;;;20.40;;
51034;SDS011;37062;52.546;13.230;2022-12-18T11:55:41;42.33;;;20.50;;
51034;SDS011;37062;52.546;13.230;2022-12-18T11:58:20;45.27;;;21.03;;
51034;SDS011;37062;52.546;13.230;2022-12-18T12:01:03;44.80;;;21.00;;
51034;SDS011;37062;52.546;13.230;2022-12-18T12:03:39;43.37;;;20.37;;
51034;SDS011;37062;52.546;13.230;2022-12-18T12:06:28;37.67;;;18.83;;
51034;SDS011;37062;52.546;13.230;2022-12-18T12:09:07;38.73;;;19.50;;
51034;SDS011;37062;52.546;13.230;2022-12-18T12:11:44;43.00;;;19.93;;
51034;SDS011;37062;52.546;13.230;2022-12-18T12:14:27;39.57;;;18.67;;
51034;SDS011;37062;52.546;13.230;2022-12-18T12:17:08;41.90;;;20.47;;
51034;SDS011;37062;52.546;13.230;2022-12-18T12:19:44;40.20;;;18.10;;
51034;SDS011;37062;52.546;13.230;2022-12-18T12:22:20;35.83;;;17.53;;
51034;SDS011;37062;52.546;13.230;2022-12-18T12:25:02;43.37;;;20.40;;
51034;SDS011;37062;52.546;13.230;2022-12-18T12:27:44;47.93;;;20.33;;
51034;SDS011;37062;52.546;13.230;2022-12-18T12:30:21;46.27;;;20.63;;
51034;SDS011;37062;52.546;13.230;2022-12-18T12:33:02;38.83;;;19.00;;
51034;SDS011;37062;52.546;13.230;2022-12-18T12:35:44;36.00;;;17.97;;
51034;SDS011;37062;52.546;13.230;2022-12-18T12:38:21;37.97;;;18.63;;
51034;SDS011;37062;52.546;13.230;2022-12-18T12:40:56;38.63;;;17.93;;
51034;SDS011;37062;52.546;13.230;2022-12-18T12:43:32;37.93;;;18.70;;
51034;SDS011;37062;52.546;13.230;2022-12-18T12:46:08;30.07;;;15.73;;
51034;SDS011;37062;52.546;13.230;2022-12-18T12:48:40;31.70;;;16.83;;
51034;SDS011;37062;52.546;13.230;2022-12-18T12:51:12;39.00;;;18.83;;
51034;SDS011;37062;52.546;13.230;2022-12-18T12:53:47;46.23;;;21.30;;
51034;SDS011;37062;52.546;13.230;2022-12-18T12:56:17;39.10;;;18.93;;
51034;SDS011;37062;52.546;13.230;2022-12-18T12:58:50;44.80;;;20.70;;
51034;SDS011;37062;52.546;13.230;2022-12-18T13:01:27;37.87;;;18.70;;
51034;SDS011;37062;52.546;13.230;2022-12-18T13:04:03;41.53;;;19.37;;
51034;SDS011;37062;52.546;13.230;2022-12-18T13:06:43;43.00;;;20.00;;
51034;SDS011;37062;52.546;13.230;2022-12-18T13:09:18;42.20;;;20.67;;
51034;SDS011;37062;52.546;13.230;2022-12-18T13:11:46;42.07;;;19.67;;
51034;SDS011;37062;52.546;13.230;2022-12-18T13:14:33;41.97;;;20.07;;
51034;SDS011;37062;52.546;13.230;2022-12-18T13:20:11;43.80;;;20.33;;
51034;SDS011;37062;52.546;13.230;2022-12-18T13:22:43;45.97;;;20.10;;
51034;SDS011;37062;52.546;13.230;2022-12-18T13:25:31;45.87;;;20.93;;
51034;SDS011;37062;52.546;13.230;2022-12-18T13:28:04;43.07;;;21.47;;
51034;SDS011;37062;52.546;13.230;2022-12-18T13:36:37;41.93;;;19.87;;
51034;SDS011;37062;52.546;13.230;2022-12-18T13:39:22;45.20;;;21.23;;
51034;SDS011;37062;52.546;13.230;2022-12-18T13:45:38;46.47;;;21.37;;
51034;SDS011;37062;52.546;13.230;2022-12-18T13:48:22;45.87;;;21.27;;
51034;SDS011;37062;52.546;13.230;2022-12-18T13:51:01;45.20;;;21.40;;
51034;SDS011;37062;52.546;13.230;2022-12-18T13:53:39;44.47;;;21.77;;
51034;SDS011;37062;52.546;13.230;2022-12-18T13:56:15;41.73;;;19.97;;
51034;SDS011;37062;52.546;13.230;2022-12-18T13:59:17;44.03;;;21.57;;
51034;SDS011;37062;52.546;13.230;2022-12-18T14:01:51;43.60;;;21.93;;
51034;SDS011;37062;52.546;13.230;2022-12-18T14:04:23;41.03;;;21.73;;
51034;SDS011;37062;52.546;13.230;2022-12-18T14:06:55;43.57;;;21.27;;
51034;SDS011;37062;52.546;13.230;2022-12-18T14:09:26;49.27;;;23.70;;
51034;SDS011;37062;52.546;13.230;2022-12-18T14:11:57;42.67;;;21.07;;
51034;SDS011;37062;52.546;13.230;2022-12-18T14:14:46;42.90;;;21.63;;
51034;SDS011;37062;52.546;13.230;2022-12-18T14:17:20;40.40;;;21.40;;
51034;SDS011;37062;52.546;13.230;2022-12-18T14:19:48;39.23;;;20.07;;
51034;SDS011;37062;52.546;13.230;2022-12-18T14:22:19;40.57;;;21.40;;
51034;SDS011;37062;52.546;13.230;2022-12-18T14:25:05;41.03;;;23.13;;
51034;SDS011;37062;52.546;13.230;2022-12-18T14:27:43;38.47;;;21.37;;
51034;SDS011;37062;52.546;13.230;2022-12-18T14:33:03;39.00;;;21.73;;
51034;SDS011;37062;52.546;13.230;2022-12-18T14:35:34;42.80;;;23.13;;
51034;SDS011;37062;52.546;13.230;2022-12-18T14:38:20;39.50;;;21.37;;
51034;SDS011;37062;52.546;13.230;2022-12-18T14:40:53;46.67;;;23.93;;
51034;SDS011;37062;52.546;13.230;2022-12-18T14:43:26;42.83;;;23.23;;
51034;SDS011;37062;52.546;13.230;2022-12-18T14:45:57;44.90;;;23.53;;
51034;SDS011;37062;52.546;13.230;2022-12-18T14:48:35;43.33;;;22.67;;
51034;SDS011;37062;52.546;13.230;2022-12-18T14:51:06;45.73;;;24.30;;
51034;SDS011;37062;52.546;13.230;2022-12-18T14:53:43;53.87;;;27.00;;